sensor_id;sensor_type;location;lat;lon;timestamp;P1;durP1;ratioP1;P2;durP2;ratioP2
67164;SDS011;54093;50.014;19.984;2023-04-07T00:08:02;18.80;;;11.45;;
67164;SDS011;54093;50.014;19.984;2023-04-07T00:17:22;25.55;;;16.30;;
67164;SDS011;54093;50.014;19.984;2023-04-07T00:26:43;11.70;;;8.52;;
67164;SDS011;54093;50.014;19.984;2023-04-07T00:36:05;14.45;;;11.13;;
67164;SDS011;54093;50.014;19.984;2023-04-07T00:45:26;19.65;;;15.20;;
67164;SDS011;54093;50.014;19.984;2023-04-07T00:54:47;16.23;;;11.23;;
67164;SDS011;54093;50.014;19.984;2023-04-07T01:04:08;15.85;;;11.00;;
67164;SDS011;54093;50.014;19.984;2023-04-07T01:13:49;19.85;;;12.25;;
67164;SDS011;54093;50.014;19.984;2023-04-07T01:23:16;14.73;;;11.00;;
67164;SDS011;54093;50.014;19.984;2023-04-07T01:32:52;14.63;;;10.48;;
67164;SDS011;54093;50.014;19.984;2023-04-07T01:42:16;12.25;;;9.90;;
67164;SDS011;54093;50.014;19.984;2023-04-07T01:51:39;15.32;;;11.85;;
67164;SDS011;54093;50.014;19.984;2023-04-07T02:01:01;25.58;;;16.85;;
67164;SDS011;54093;50.014;19.984;2023-04-07T02:10:23;24.90;;;15.65;;
67164;SDS011;54093;50.014;19.984;2023-04-07T02:19:46;11.63;;;10.23;;
67164;SDS011;54093;50.014;19.984;2023-04-07T02:29:09;25.90;;;16.38;;
67164;SDS011;54093;50.014;19.984;2023-04-07T02:38:30;11.80;;;8.52;;
67164;SDS011;54093;50.014;19.984;2023-04-07T02:47:51;17.60;;;11.93;;
67164;SDS011;54093;50.014;19.984;2023-04-07T02:57:12;11.75;;;10.27;;
67164;SDS011;54093;50.014;19.984;2023-04-07T03:06:33;17.50;;;10.80;;
67164;SDS011;54093;50.014;19.984;2023-04-07T03:15:54;16.25;;;12.48;;
67164;SDS011;54093;50.014;19.984;2023-04-07T03:25:16;16.10;;;11.70;;
67164;SDS011;54093;50.014;19.984;2023-04-07T03:34:37;18.58;;;12.63;;
67164;SDS011;54093;50.014;19.984;2023-04-07T03:43:58;14.68;;;12.23;;
67164;SDS011;54093;50.014;19.984;2023-04-07T03:53:19;18.70;;;9.80;;
67164;SDS011;54093;50.014;19.984;2023-04-07T04:02:39;19.05;;;12.02;;
67164;SDS011;54093;50.014;19.984;2023-04-07T04:12:00;18.88;;;13.60;;
67164;SDS011;54093;50.014;19.984;2023-04-07T04:21:21;25.45;;;14.98;;
67164;SDS011;54093;50.014;19.984;2023-04-07T04:30:42;30.92;;;17.67;;
67164;SDS011;54093;50.014;19.984;2023-04-07T04:40:03;27.83;;;14.45;;
67164;SDS011;54093;50.014;19.984;2023-04-07T04:49:27;24.42;;;11.18;;
67164;SDS011;54093;50.014;19.984;2023-04-07T04:58:48;13.20;;;10.68;;
67164;SDS011;54093;50.014;19.984;2023-04-07T05:08:09;17.05;;;12.95;;
67164;SDS011;54093;50.014;19.984;2023-04-07T05:17:30;18.60;;;11.85;;
67164;SDS011;54093;50.014;19.984;2023-04-07T05:26:51;19.98;;;10.38;;
67164;SDS011;54093;50.014;19.984;2023-04-07T05:36:12;27.35;;;14.15;;
67164;SDS011;54093;50.014;19.984;2023-04-07T05:45:33;26.33;;;13.98;;
67164;SDS011;54093;50.014;19.984;2023-04-07T05:54:54;30.23;;;16.83;;
67164;SDS011;54093;50.014;19.984;2023-04-07T06:04:15;10.60;;;9.52;;
67164;SDS011;54093;50.014;19.984;2023-04-07T06:13:36;14.35;;;10.15;;
67164;SDS011;54093;50.014;19.984;2023-04-07T06:22:57;13.50;;;9.52;;
67164;SDS011;54093;50.014;19.984;2023-04-07T06:32:19;17.67;;;9.88;;
67164;SDS011;54093;50.014;19.984;2023-04-07T06:41:39;11.07;;;8.63;;
67164;SDS011;54093;50.014;19.984;2023-04-07T06:51:02;14.77;;;10.00;;
67164;SDS011;54093;50.014;19.984;2023-04-07T07:00:23;18.83;;;12.13;;
67164;SDS011;54093;50.014;19.984;2023-04-07T07:09:45;9.43;;;8.50;;
67164;SDS011;54093;50.014;19.984;2023-04-07T07:19:06;21.25;;;11.20;;
67164;SDS011;54093;50.014;19.984;2023-04-07T07:28:27;15.00;;;9.82;;
67164;SDS011;54093;50.014;19.984;2023-04-07T07:37:48;17.42;;;9.55;;
67164;SDS011;54093;50.014;19.984;2023-04-07T07:47:09;13.85;;;8.75;;
67164;SDS011;54093;50.014;19.984;2023-04-07T07:56:32;10.35;;;7.75;;
67164;SDS011;54093;50.014;19.984;2023-04-07T08:05:52;17.58;;;9.93;;
67164;SDS011;54093;50.014;19.984;2023-04-07T08:15:13;22.05;;;12.30;;
67164;SDS011;54093;50.014;19.984;2023-04-07T08:24:35;16.77;;;9.82;;
67164;SDS011;54093;50.014;19.984;2023-04-07T08:33:55;14.52;;;9.80;;
67164;SDS011;54093;50.014;19.984;2023-04-07T08:43:19;16.10;;;9.57;;
67164;SDS011;54093;50.014;19.984;2023-04-07T09:02:16;10.23;;;7.80;;
67164;SDS011;54093;50.014;19.984;2023-04-07T09:11:38;17.35;;;9.48;;
67164;SDS011;54093;50.014;19.984;2023-04-07T09:21:01;14.65;;;10.98;;
67164;SDS011;54093;50.014;19.984;2023-04-07T09:30:24;9.27;;;7.50;;
67164;SDS011;54093;50.014;19.984;2023-04-07T09:39:50;13.63;;;9.85;;
67164;SDS011;54093;50.014;19.984;2023-04-07T09:49:13;11.50;;;7.85;;
67164;SDS011;54093;50.014;19.984;2023-04-07T09:58:34;9.10;;;7.43;;
67164;SDS011;54093;50.014;19.984;2023-04-07T10:07:57;10.30;;;8.18;;
67164;SDS011;54093;50.014;19.984;2023-04-07T10:17:20;10.52;;;7.97;;
67164;SDS011;54093;50.014;19.984;2023-04-07T10:26:43;9.43;;;7.72;;
67164;SDS011;54093;50.014;19.984;2023-04-07T10:36:08;11.30;;;8.15;;
67164;SDS011;54093;50.014;19.984;2023-04-07T11:05:04;8.85;;;8.02;;
67164;SDS011;54093;50.014;19.984;2023-04-07T11:23:47;12.18;;;9.02;;
67164;SDS011;54093;50.014;19.984;2023-04-07T11:33:08;7.97;;;6.93;;
67164;SDS011;54093;50.014;19.984;2023-04-07T11:42:36;6.75;;;5.28;;
67164;SDS011;54093;50.014;19.984;2023-04-07T11:52:03;8.93;;;6.90;;
67164;SDS011;54093;50.014;19.984;2023-04-07T12:01:37;10.32;;;8.25;;
67164;SDS011;54093;50.014;19.984;2023-04-07T12:11:03;8.25;;;7.55;;
67164;SDS011;54093;50.014;19.984;2023-04-07T12:20:25;8.07;;;7.22;;
67164;SDS011;54093;50.014;19.984;2023-04-07T12:29:46;14.05;;;8.65;;
67164;SDS011;54093;50.014;19.984;2023-04-07T12:39:08;9.30;;;8.43;;
67164;SDS011;54093;50.014;19.984;2023-04-07T12:48:29;9.20;;;7.70;;
67164;SDS011;54093;50.014;19.984;2023-04-07T12:57:50;9.32;;;7.18;;
67164;SDS011;54093;50.014;19.984;2023-04-07T13:07:12;10.65;;;8.02;;
67164;SDS011;54093;50.014;19.984;2023-04-07T13:16:33;12.05;;;8.20;;
67164;SDS011;54093;50.014;19.984;2023-04-07T13:25:54;12.05;;;9.10;;
67164;SDS011;54093;50.014;19.984;2023-04-07T13:35:15;9.68;;;8.13;;
67164;SDS011;54093;50.014;19.984;2023-04-07T13:44:37;12.95;;;8.25;;
67164;SDS011;54093;50.014;19.984;2023-04-07T13:53:59;12.00;;;7.85;;
67164;SDS011;54093;50.014;19.984;2023-04-07T14:03:20;7.15;;;6.45;;
67164;SDS011;54093;50.014;19.984;2023-04-07T14:12:42;8.77;;;7.88;;
67164;SDS011;54093;50.014;19.984;2023-04-07T14:22:02;10.90;;;7.63;;
67164;SDS011;54093;50.014;19.984;2023-04-07T14:31:23;12.65;;;10.68;;
67164;SDS011;54093;50.014;19.984;2023-04-07T14:40:44;9.63;;;8.65;;
67164;SDS011;54093;50.014;19.984;2023-04-07T14:50:06;8.70;;;7.57;;
67164;SDS011;54093;50.014;19.984;2023-04-07T14:59:27;10.10;;;7.85;;
67164;SDS011;54093;50.014;19.984;2023-04-07T15:08:49;10.48;;;9.02;;
67164;SDS011;54093;50.014;19.984;2023-04-07T15:18:10;7.90;;;6.72;;
67164;SDS011;54093;50.014;19.984;2023-04-07T15:27:31;13.10;;;9.02;;
67164;SDS011;54093;50.014;19.984;2023-04-07T15:36:51;17.13;;;11.10;;
67164;SDS011;54093;50.014;19.984;2023-04-07T15:46:12;8.25;;;7.45;;
67164;SDS011;54093;50.014;19.984;2023-04-07T15:55:35;8.07;;;6.55;;
67164;SDS011;54093;50.014;19.984;2023-04-07T16:04:56;8.10;;;7.30;;
67164;SDS011;54093;50.014;19.984;2023-04-07T16:14:17;8.48;;;7.47;;
67164;SDS011;54093;50.014;19.984;2023-04-07T16:23:38;9.80;;;6.70;;
67164;SDS011;54093;50.014;19.984;2023-04-07T16:32:59;13.15;;;6.65;;
67164;SDS011;54093;50.014;19.984;2023-04-07T16:42:20;11.68;;;9.73;;
67164;SDS011;54093;50.014;19.984;2023-04-07T16:51:41;12.32;;;7.82;;
67164;SDS011;54093;50.014;19.984;2023-04-07T17:01:02;7.28;;;6.57;;
67164;SDS011;54093;50.014;19.984;2023-04-07T17:10:34;7.38;;;6.55;;
67164;SDS011;54093;50.014;19.984;2023-04-07T17:19:55;9.65;;;7.63;;
67164;SDS011;54093;50.014;19.984;2023-04-07T17:29:17;6.35;;;5.75;;
67164;SDS011;54093;50.014;19.984;2023-04-07T17:38:40;7.05;;;6.50;;
67164;SDS011;54093;50.014;19.984;2023-04-07T17:48:01;8.73;;;7.88;;
67164;SDS011;54093;50.014;19.984;2023-04-07T17:57:23;16.38;;;9.73;;
67164;SDS011;54093;50.014;19.984;2023-04-07T18:06:44;9.00;;;7.85;;
67164;SDS011;54093;50.014;19.984;2023-04-07T18:16:05;11.52;;;8.13;;
67164;SDS011;54093;50.014;19.984;2023-04-07T18:25:31;17.30;;;9.67;;
67164;SDS011;54093;50.014;19.984;2023-04-07T18:34:52;16.77;;;11.35;;
67164;SDS011;54093;50.014;19.984;2023-04-07T18:44:14;11.27;;;9.57;;
67164;SDS011;54093;50.014;19.984;2023-04-07T18:53:35;12.02;;;9.25;;
67164;SDS011;54093;50.014;19.984;2023-04-07T19:02:56;12.05;;;8.02;;
67164;SDS011;54093;50.014;19.984;2023-04-07T19:12:17;13.38;;;9.10;;
67164;SDS011;54093;50.014;19.984;2023-04-07T19:21:38;13.98;;;9.07;;
67164;SDS011;54093;50.014;19.984;2023-04-07T19:31:00;14.65;;;10.05;;
67164;SDS011;54093;50.014;19.984;2023-04-07T19:40:21;30.20;;;15.82;;
67164;SDS011;54093;50.014;19.984;2023-04-07T19:49:43;26.30;;;14.40;;
67164;SDS011;54093;50.014;19.984;2023-04-07T19:59:06;25.02;;;13.65;;
67164;SDS011;54093;50.014;19.984;2023-04-07T20:08:27;18.27;;;12.20;;
67164;SDS011;54093;50.014;19.984;2023-04-07T20:17:47;42.78;;;20.58;;
67164;SDS011;54093;50.014;19.984;2023-04-07T20:27:08;24.80;;;13.43;;
67164;SDS011;54093;50.014;19.984;2023-04-07T20:36:29;21.85;;;12.95;;
67164;SDS011;54093;50.014;19.984;2023-04-07T20:45:50;22.77;;;11.93;;
67164;SDS011;54093;50.014;19.984;2023-04-07T20:55:12;28.13;;;14.20;;
67164;SDS011;54093;50.014;19.984;2023-04-07T21:04:33;22.77;;;14.23;;
67164;SDS011;54093;50.014;19.984;2023-04-07T21:13:54;20.80;;;12.50;;
67164;SDS011;54093;50.014;19.984;2023-04-07T21:23:15;14.55;;;11.60;;
67164;SDS011;54093;50.014;19.984;2023-04-07T21:32:36;21.17;;;12.98;;
67164;SDS011;54093;50.014;19.984;2023-04-07T21:41:57;27.52;;;14.93;;
67164;SDS011;54093;50.014;19.984;2023-04-07T21:51:18;17.60;;;11.85;;
67164;SDS011;54093;50.014;19.984;2023-04-07T22:00:39;17.85;;;11.38;;
67164;SDS011;54093;50.014;19.984;2023-04-07T22:10:00;24.15;;;14.98;;
67164;SDS011;54093;50.014;19.984;2023-04-07T22:19:21;17.00;;;10.55;;
67164;SDS011;54093;50.014;19.984;2023-04-07T22:28:42;18.15;;;11.55;;
67164;SDS011;54093;50.014;19.984;2023-04-07T22:38:02;14.63;;;11.20;;
67164;SDS011;54093;50.014;19.984;2023-04-07T22:47:23;17.30;;;9.98;;
67164;SDS011;54093;50.014;19.984;2023-04-07T22:56:44;19.90;;;12.13;;
67164;SDS011;54093;50.014;19.984;2023-04-07T23:06:05;18.00;;;12.90;;
67164;SDS011;54093;50.014;19.984;2023-04-07T23:15:26;22.30;;;12.73;;
67164;SDS011;54093;50.014;19.984;2023-04-07T23:24:47;24.08;;;15.30;;
67164;SDS011;54093;50.014;19.984;2023-04-07T23:34:08;30.77;;;16.00;;
67164;SDS011;54093;50.014;19.984;2023-04-07T23:43:29;16.70;;;10.00;;
67164;SDS011;54093;50.014;19.984;2023-04-07T23:52:50;17.55;;;12.25;;
